Terminal Aerodrome Forecast
Issued by NWS

Home | Current Version | Previous Version | Text Only | Print | Product List | Glossary On
Versions: 1 2 3 4 5 6 7 8 9 10 11 12 13 14 15 16 17 18 19 20 21 22
000
FTUS43 KDTX 101120
TAFYIP
TAF
KYIP 101120Z 1012/1112 24009KT P6SM -SHSN SCT025 OVC050
     FM101500 24012KT 6SM -SHSN BKN035 BKN050
      TEMPO 1015/1018 2SM -SHSN BKN025
     FM101900 23012KT P6SM -SHSN BKN050
     FM110000 22008KT P6SM SCT035 OVC120
     FM110600 21005KT 3SM -SN BKN028 OVC040=

USA.gov is the U.S. government's official web portal to all federal, state and local government web resources and services.